Time;durP1;ratioP1;P1;durP2;ratioP2;P2;SDS_P1;SDS_P2;PMS_P1;PMS_P2;Temp;Humidity;BMP_temperature;BMP_pressure;BME280_temperature;BME280_humidity;BME280_pressure;Samples;Min_cycle;Max_cycle;Signal;HPM_P1;HPM_P2
2021/08/16 00:01:37;;;;;;;11.63;3.30;;;17.40;99.90;;;17.21;95.83;101341.47;4104874;28;20119;-74
2021/08/16 00:03:38;;;;;;;12.40;3.03;;;17.40;99.90;;;17.18;95.91;101336.50;4122007;28;20027;-74
2021/08/16 00:05:39;;;;;;;11.73;2.90;;;17.30;99.90;;;17.17;96.19;101334.88;4122141;28;20029;-74
2021/08/16 00:07:41;;;;;;;9.60;2.92;;;17.30;99.90;;;17.26;95.76;101347.09;4120967;28;20525;-74
2021/08/16 00:09:42;;;;;;;10.75;3.85;;;17.40;99.90;;;17.23;95.99;101336.78;4153270;28;20021;-74
2021/08/16 00:11:43;;;;;;;11.25;3.00;;;17.40;99.90;;;17.21;96.06;101335.31;4120942;28;20038;-74
2021/08/16 00:13:43;;;;;;;8.90;2.53;;;17.40;99.90;;;17.14;95.99;101338.69;4121010;28;20056;-74
2021/08/16 00:15:44;;;;;;;10.63;2.85;;;17.40;99.90;;;17.13;96.42;101338.91;4120718;28;20099;-74
2021/08/16 00:17:45;;;;;;;7.38;2.50;;;17.40;99.90;;;17.19;96.07;101337.34;4121672;28;20490;-74
2021/08/16 00:19:46;;;;;;;7.63;3.13;;;17.40;99.90;;;17.31;96.16;101338.53;4122037;28;20030;-74
2021/08/16 00:21:47;;;;;;;8.05;3.03;;;17.40;99.90;;;17.22;96.17;101337.78;4137022;28;20037;-74
2021/08/16 00:23:48;;;;;;;10.18;3.30;;;17.60;99.90;;;17.24;95.81;101334.94;4136767;28;20066;-74
2021/08/16 00:25:49;;;;;;;10.15;3.17;;;17.50;99.90;;;17.23;95.75;101344.78;4120699;28;20031;-74
2021/08/16 00:27:50;;;;;;;10.50;2.90;;;17.50;99.90;;;17.25;95.93;101336.59;4120569;28;20095;-74
2021/08/16 00:29:51;;;;;;;9.10;3.38;;;17.60;99.90;;;17.22;96.05;101331.63;4120813;28;20569;-74
2021/08/16 00:31:52;;;;;;;7.75;2.97;;;17.60;99.90;;;17.30;95.57;101326.19;4120017;28;20042;-74
2021/08/16 00:33:53;;;;;;;10.68;3.38;;;17.60;99.90;;;17.32;95.51;101335.69;4121281;28;20084;-74
2021/08/16 00:35:54;;;;;;;12.70;3.53;;;17.60;99.90;;;17.30;94.95;101335.03;4120469;28;20150;-74
2021/08/16 00:37:55;;;;;;;8.35;3.03;;;17.60;99.90;;;17.29;94.91;101337.88;4136624;28;20049;-74
2021/08/16 00:39:56;;;;;;;11.43;2.90;;;17.60;99.90;;;17.27;95.37;101335.38;4121752;28;20027;-74
2021/08/16 00:41:58;;;;;;;9.88;2.70;;;17.60;99.90;;;17.33;94.60;101329.31;4120287;28;20047;-74
2021/08/16 00:44:00;;;;;;;12.30;4.22;;;17.60;99.90;;;17.28;94.93;101325.56;4120463;28;20403;-74
2021/08/16 00:46:03;;;;;;;10.07;3.30;;;17.60;99.90;;;17.25;95.22;101326.75;4120502;28;20026;-74
2021/08/16 00:48:04;;;;;;;10.10;3.15;;;17.60;99.90;;;17.32;94.91;101332.19;4120240;28;20035;-74
2021/08/16 00:50:08;;;;;;;8.85;3.33;;;17.60;99.90;;;17.44;94.49;101336.84;4152500;28;20123;-74
2021/08/16 00:52:10;;;;;;;9.85;3.60;;;17.60;99.90;;;17.39;94.05;101333.91;4120173;28;20481;-74
2021/08/16 00:54:11;;;;;;;9.60;2.97;;;17.70;99.90;;;17.39;94.38;101341.91;4120325;28;20527;-74
2021/08/16 00:56:13;;;;;;;11.52;3.00;;;17.70;99.90;;;17.38;93.93;101337.59;4120408;28;20046;-74
2021/08/16 00:58:14;;;;;;;12.00;3.20;;;17.70;99.90;;;17.43;93.79;101335.22;4120155;28;20089;-74
2021/08/16 01:00:15;;;;;;;12.55;2.75;;;17.70;99.90;;;17.45;93.98;101333.16;4103929;28;20031;-74
2021/08/16 01:02:16;;;;;;;8.30;3.30;;;17.70;99.90;;;17.40;94.19;101343.56;4119882;28;20553;-74
2021/08/16 01:04:17;;;;;;;13.82;3.88;;;17.70;99.90;;;17.36;94.29;101344.94;4136164;28;20134;-73
2021/08/16 01:06:19;;;;;;;17.10;4.05;;;17.70;99.90;;;17.38;94.46;101340.25;4119954;28;20033;-74
2021/08/16 01:08:21;;;;;;;9.98;3.70;;;17.70;99.90;;;17.36;94.13;101344.13;4136019;28;20045;-74
2021/08/16 01:10:22;;;;;;;14.30;3.88;;;17.70;99.90;;;17.36;94.24;101339.63;4120039;28;20026;-74
2021/08/16 01:12:23;;;;;;;12.60;3.30;;;17.70;99.90;;;17.38;94.34;101334.91;4120000;28;20042;-74
2021/08/16 01:14:24;;;;;;;9.73;3.17;;;17.70;99.90;;;17.30;94.71;101334.19;4135828;28;20481;-73
2021/08/16 01:16:25;;;;;;;9.60;3.15;;;17.70;99.90;;;17.37;95.05;101340.44;4119798;28;20481;-73
2021/08/16 01:18:28;;;;;;;15.10;3.85;;;17.70;99.90;;;17.31;94.54;101335.84;4119617;28;20019;-73
2021/08/16 01:20:30;;;;;;;11.35;4.00;;;17.70;99.90;;;17.28;95.43;101331.72;4119863;28;20034;-74
2021/08/16 01:22:33;;;;;;;9.55;3.53;;;17.70;99.90;;;17.33;95.30;101334.66;4119699;28;20474;-74
2021/08/16 01:24:34;;;;;;;11.27;2.90;;;17.60;99.90;;;17.31;95.23;101331.34;4119556;28;20110;-74
2021/08/16 01:26:35;;;;;;;12.50;3.40;;;17.70;99.90;;;17.38;95.15;101331.44;4119649;28;20082;-74
2021/08/16 01:28:37;;;;;;;12.63;3.80;;;17.60;99.90;;;17.38;94.90;101337.59;4120835;28;20085;-74
2021/08/16 01:30:38;;;;;;;8.43;3.00;;;17.70;99.90;;;17.33;95.24;101333.81;4119640;28;20402;-74
2021/08/16 01:32:42;;;;;;;11.20;4.20;;;17.70;99.90;;;17.27;95.38;101345.22;4120287;28;20034;-74
2021/08/16 01:34:44;;;;;;;13.02;3.38;;;17.70;99.90;;;17.31;96.04;101343.84;4119600;28;20023;-74
2021/08/16 01:36:45;;;;;;;7.53;3.97;;;17.60;99.90;;;17.33;95.80;101337.31;4120758;28;20419;-74
2021/08/16 01:38:46;;;;;;;9.35;3.42;;;17.70;99.90;;;17.33;96.10;101336.50;4103638;28;20027;-74
2021/08/16 01:40:48;;;;;;;15.55;3.30;;;17.60;99.90;;;17.33;96.22;101329.31;4120693;28;20023;-74
2021/08/16 01:42:49;;;;;;;9.73;3.22;;;17.60;99.90;;;17.46;95.57;101332.16;4119299;28;20043;-73
2021/08/16 01:44:50;;;;;;;12.10;2.97;;;17.70;99.90;;;17.42;95.87;101327.38;4118380;28;20034;-74
2021/08/16 01:46:53;;;;;;;11.35;3.65;;;17.70;99.90;;;17.35;95.78;101321.94;4119339;28;20035;-74
2021/08/16 01:48:54;;;;;;;9.67;3.60;;;17.70;99.90;;;17.28;96.27;101325.56;4103002;28;20019;-74
2021/08/16 01:50:57;;;;;;;13.30;3.13;;;17.60;99.90;;;17.37;95.59;101322.63;4120610;28;20262;-74
2021/08/16 01:52:57;;;;;;;11.30;3.45;;;17.60;99.90;;;17.37;95.93;101314.63;4119204;28;20031;-74
2021/08/16 01:55:00;;;;;;;13.32;3.67;;;17.60;99.90;;;17.40;96.15;101314.25;4120478;28;20038;-74
2021/08/16 01:57:01;;;;;;;13.80;4.32;;;17.70;99.90;;;17.40;96.75;101316.06;4119406;28;20026;-74
2021/08/16 01:59:03;;;;;;;9.77;3.20;;;17.70;99.90;;;17.42;96.64;101333.53;4120417;28;20041;-74
2021/08/16 02:01:04;;;;;;;12.23;2.80;;;17.70;99.90;;;17.37;96.60;101329.78;4120452;28;20070;-74
2021/08/16 02:03:05;;;;;;;12.30;2.85;;;17.70;99.90;;;17.41;97.13;101329.22;4120142;28;20398;-73
2021/08/16 02:05:06;;;;;;;10.73;2.80;;;17.60;99.90;;;17.35;96.93;101337.16;4119380;28;20092;-74
2021/08/16 02:07:07;;;;;;;9.68;2.53;;;17.70;99.90;;;17.31;97.30;101342.03;4119192;28;20035;-73
2021/08/16 02:09:08;;;;;;;8.30;3.25;;;17.70;99.90;;;17.23;97.66;101339.47;4135235;28;20054;-74
2021/08/16 02:11:10;;;;;;;11.48;3.60;;;17.70;99.90;;;17.23;97.95;101344.78;4119112;28;20034;-74
2021/08/16 02:13:11;;;;;;;8.70;2.38;;;17.60;99.90;;;17.31;98.04;101344.69;4119010;28;20030;-74
2021/08/16 02:15:13;;;;;;;10.13;3.22;;;17.60;99.90;;;17.40;97.70;101345.41;4103056;28;20038;-74
2021/08/16 02:17:14;;;;;;;7.70;2.80;;;17.60;99.90;;;17.37;97.44;101349.28;4118757;28;20439;-73
2021/08/16 02:19:14;;;;;;;9.27;3.13;;;17.70;99.90;;;17.34;97.65;101354.97;4135013;28;20033;-74
2021/08/16 02:21:16;;;;;;;7.00;2.70;;;17.70;99.90;;;17.26;98.08;101340.94;4120012;28;20034;-74
2021/08/16 02:23:16;;;;;;;8.15;3.20;;;17.70;99.90;;;17.34;97.71;101347.00;4119240;28;20513;-74
2021/08/16 02:25:17;;;;;;;9.60;3.28;;;17.70;99.90;;;17.36;98.03;101355.63;4119965;28;20035;-74
2021/08/16 02:27:18;;;;;;;8.57;2.28;;;17.70;99.90;;;17.36;98.82;101358.28;4118825;28;20055;-74
2021/08/16 02:29:19;;;;;;;9.13;3.00;;;17.70;99.90;;;17.28;99.80;101352.22;4119885;28;20081;-74
2021/08/16 02:31:23;;;;;;;8.50;2.50;;;17.70;99.90;;;17.33;100.00;101349.81;4119124;28;20030;-74
2021/08/16 02:33:24;;;;;;;7.53;2.63;;;17.70;99.90;;;17.30;100.00;101356.34;4119647;28;20030;-74
2021/08/16 02:35:25;;;;;;;7.45;2.88;;;17.60;99.90;;;17.20;100.00;101349.66;4119936;28;20086;-73
2021/08/16 02:37:26;;;;;;;8.40;2.70;;;17.60;99.90;;;17.15;100.00;101342.19;4118802;28;20625;-74
2021/08/16 02:39:27;;;;;;;8.25;2.80;;;17.50;99.90;;;17.07;100.00;101344.97;4118864;28;20097;-74
2021/08/16 02:41:28;;;;;;;9.10;2.90;;;17.40;99.90;;;17.02;100.00;101352.69;4151165;28;20049;-74
2021/08/16 02:43:29;;;;;;;5.63;2.65;;;17.30;99.90;;;16.96;100.00;101359.59;4119705;28;20053;-74
2021/08/16 02:45:30;;;;;;;7.82;2.55;;;17.30;99.90;;;16.96;100.00;101353.44;4118608;28;20030;-74
2021/08/16 02:47:31;;;;;;;7.95;3.00;;;17.20;99.90;;;17.02;100.00;101358.03;4134483;28;20606;-74
2021/08/16 02:49:32;;;;;;;5.45;2.35;;;17.20;99.90;;;17.03;100.00;101360.50;4134671;28;20086;-74
2021/08/16 02:51:33;;;;;;;5.65;2.70;;;17.20;99.90;;;17.01;100.00;101351.03;4118695;28;20031;-74
2021/08/16 02:53:34;;;;;;;7.13;2.55;;;17.30;99.90;;;17.09;100.00;101358.94;4134640;28;20022;-74
2021/08/16 02:55:34;;;;;;;6.35;2.60;;;17.20;99.90;;;16.98;100.00;101359.38;4122131;28;20042;-74
2021/08/16 02:57:35;;;;;;;7.07;2.78;;;17.30;99.90;;;17.10;100.00;101357.94;4124000;28;20030;-74
2021/08/16 02:59:36;;;;;;;6.95;2.80;;;17.30;99.90;;;17.09;100.00;101359.75;4123995;28;20586;-74
2021/08/16 03:01:37;;;;;;;7.72;2.53;;;17.30;99.90;;;17.08;100.00;101366.09;4139941;28;20061;-74
2021/08/16 03:03:38;;;;;;;9.48;3.30;;;17.40;99.90;;;17.22;100.00;101380.47;4107627;29;20518;-74
2021/08/16 03:05:39;;;;;;;6.32;2.35;;;17.40;99.90;;;17.13;100.00;101368.22;4123855;28;20031;-74
2021/08/16 03:07:40;;;;;;;15.23;2.88;;;17.40;99.90;;;17.19;100.00;101380.00;4125102;28;20081;-74
2021/08/16 03:09:41;;;;;;;8.35;2.58;;;17.40;99.90;;;17.24;100.00;101380.25;4123829;28;20094;-74
2021/08/16 03:11:42;;;;;;;7.57;2.33;;;17.40;99.90;;;17.30;100.00;101376.84;4140129;28;20464;-74
2021/08/16 03:13:43;;;;;;;4.75;2.20;;;17.50;99.90;;;17.27;99.77;101380.72;4123864;28;20037;-74
2021/08/16 03:15:43;;;;;;;5.70;2.28;;;17.50;99.90;;;17.22;100.00;101382.28;4140009;28;20031;-74
2021/08/16 03:17:44;;;;;;;6.90;2.22;;;17.50;99.90;;;17.12;100.00;101385.22;4124735;28;20390;-74
2021/08/16 03:19:45;;;;;;;7.95;2.60;;;17.50;99.90;;;17.27;100.00;101377.22;4123881;28;20081;-74
2021/08/16 03:21:46;;;;;;;5.07;2.00;;;17.50;99.90;;;17.28;100.00;101371.72;4139997;28;20453;-74
2021/08/16 03:23:47;;;;;;;4.85;2.05;;;17.60;99.90;;;17.24;100.00;101381.09;4123709;28;20093;-74
2021/08/16 03:25:48;;;;;;;5.32;2.22;;;17.50;99.90;;;17.30;98.82;101375.03;4123640;28;20395;-74
2021/08/16 03:27:49;;;;;;;6.57;2.42;;;17.50;99.90;;;17.23;99.00;101363.47;4123829;28;20031;-74
2021/08/16 03:29:50;;;;;;;4.82;2.03;;;17.50;99.90;;;17.25;99.23;101377.44;4124902;28;20030;-74
2021/08/16 03:31:52;;;;;;;8.65;2.40;;;17.50;99.90;;;17.34;98.77;101370.97;4123722;28;20026;-74
2021/08/16 03:33:53;;;;;;;3.58;2.00;;;17.50;99.90;;;17.32;98.64;101378.34;4123153;28;20026;-74
2021/08/16 03:35:54;;;;;;;7.18;2.58;;;17.50;99.90;;;17.40;98.26;101370.25;4139692;28;20023;-74
2021/08/16 03:37:55;;;;;;;5.45;2.67;;;17.50;99.90;;;17.43;97.63;101366.38;4124892;28;20085;-74
2021/08/16 03:39:56;;;;;;;8.82;2.63;;;17.50;99.90;;;17.27;97.66;101371.91;4107597;28;20451;-74
2021/08/16 03:41:57;;;;;;;7.75;2.15;;;17.50;99.90;;;17.08;98.78;101362.63;4123694;28;20146;-74
2021/08/16 03:43:58;;;;;;;5.38;2.17;;;17.50;99.90;;;17.13;98.92;101376.22;4124711;28;20042;-74
2021/08/16 03:45:59;;;;;;;5.22;2.40;;;17.40;99.90;;;17.21;98.16;101361.97;4123722;28;20031;-74
2021/08/16 03:48:00;;;;;;;5.80;2.28;;;17.50;99.90;;;17.27;98.20;101364.72;4139574;28;20030;-74
2021/08/16 03:50:01;;;;;;;3.80;1.83;;;17.50;99.90;;;17.35;97.67;101369.94;4123450;28;20029;-74
2021/08/16 03:52:02;;;;;;;4.47;1.90;;;17.50;99.90;;;17.19;98.15;101385.31;4123423;28;20082;-74
2021/08/16 03:54:03;;;;;;;7.38;2.17;;;17.50;99.90;;;17.20;98.27;101379.81;4123525;28;20435;-74
2021/08/16 03:56:06;;;;;;;6.40;2.17;;;17.50;99.90;;;17.20;98.41;101371.81;4139734;28;20036;-74
2021/08/16 03:58:07;;;;;;;7.50;2.42;;;17.50;99.90;;;17.32;97.49;101369.53;4139754;28;20105;-74
2021/08/16 04:00:11;;;;;;;3.35;1.90;;;17.50;99.90;;;17.31;97.34;101371.34;4123375;28;20062;-74
2021/08/16 04:02:12;;;;;;;3.28;1.55;;;17.50;99.90;;;17.29;97.63;101375.22;4122969;28;20030;-74
2021/08/16 04:04:13;;;;;;;4.50;1.73;;;17.50;99.90;;;17.35;97.28;101387.81;4123698;28;20149;-74
2021/08/16 04:06:13;;;;;;;9.18;2.97;;;17.50;99.90;;;17.39;96.65;101381.91;4123395;28;20490;-74
2021/08/16 04:08:14;;;;;;;4.00;1.70;;;17.60;99.90;;;17.30;97.37;101380.34;4119938;28;20049;-74
2021/08/16 04:10:17;;;;;;;6.22;1.70;;;17.50;99.90;;;17.23;97.39;101384.78;4121166;28;20038;-74
2021/08/16 04:12:17;;;;;;;4.18;1.95;;;17.60;99.90;;;17.40;96.30;101388.09;4121000;28;20088;-74
2021/08/16 04:14:18;;;;;;;3.65;1.88;;;17.60;99.90;;;17.39;95.87;101381.09;4136879;28;20066;-74
2021/08/16 04:16:19;;;;;;;4.53;1.98;;;17.60;99.90;;;17.40;95.10;101390.75;4122062;28;20027;-74
2021/08/16 04:18:20;;;;;;;4.38;2.25;;;17.60;99.90;;;17.29;95.60;101400.06;4121816;28;20373;-74
2021/08/16 04:20:22;;;;;;;5.15;2.28;;;17.60;99.90;;;17.29;95.50;101388.56;4121996;28;20085;-74
2021/08/16 04:22:22;;;;;;;5.25;2.13;;;17.60;99.90;;;17.25;96.05;101396.09;4122031;28;20027;-74
2021/08/16 04:24:23;;;;;;;6.57;1.83;;;17.60;99.90;;;17.32;95.51;101413.03;4121803;28;20033;-74
2021/08/16 04:26:24;;;;;;;3.90;2.00;;;17.60;99.90;;;17.28;96.03;101403.72;4122038;28;20447;-74
2021/08/16 04:28:25;;;;;;;5.10;1.95;;;17.60;99.90;;;17.23;96.49;101408.78;4121933;28;20085;-74
2021/08/16 04:30:26;;;;;;;4.60;1.80;;;17.60;99.90;;;17.20;96.78;101414.47;4120727;28;20371;-74
2021/08/16 04:32:27;;;;;;;5.95;2.70;;;17.60;99.90;;;17.24;97.19;101417.59;4119959;28;20033;-74
2021/08/16 04:34:28;;;;;;;4.93;1.88;;;17.60;99.90;;;17.32;95.82;101412.19;4121795;28;20066;-74
2021/08/16 04:36:29;;;;;;;4.45;2.00;;;17.50;99.90;;;17.37;95.64;101420.47;4136742;28;20031;-74
2021/08/16 04:38:30;;;;;;;5.13;2.30;;;17.60;99.90;;;17.30;96.14;101430.19;4121650;28;20050;-74
2021/08/16 04:40:31;;;;;;;4.28;1.98;;;17.60;99.90;;;17.22;96.74;101422.28;4121526;28;20034;-74
2021/08/16 04:42:32;;;;;;;4.38;1.70;;;17.60;99.90;;;17.29;96.77;101426.72;4121505;28;20122;-74
2021/08/16 04:44:33;;;;;;;6.97;2.28;;;17.50;99.90;;;17.35;95.62;101412.63;4120613;28;20081;-74
2021/08/16 04:46:34;;;;;;;5.72;1.75;;;17.60;99.90;;;17.22;96.42;101411.63;4121625;28;20062;-74
2021/08/16 04:48:35;;;;;;;5.82;2.08;;;17.60;99.90;;;17.27;96.73;101410.06;4104031;28;20027;-74
2021/08/16 04:50:36;;;;;;;3.17;1.95;;;17.60;99.90;;;17.26;96.62;101429.75;4121816;28;20031;-74
2021/08/16 04:52:37;;;;;;;3.40;2.03;;;17.60;99.90;;;17.25;96.20;101425.41;4104359;28;20438;-74
2021/08/16 04:54:39;;;;;;;6.47;2.15;;;17.50;99.90;;;17.31;95.20;101422.03;4121401;28;20035;-74
2021/08/16 04:56:40;;;;;;;6.10;2.10;;;17.50;99.90;;;17.28;95.43;101427.72;4121354;28;20549;-74
2021/08/16 04:58:40;;;;;;;4.72;1.80;;;17.40;99.90;;;17.30;95.28;101433.69;4120370;28;20022;-74
2021/08/16 05:00:41;;;;;;;3.38;1.98;;;17.40;99.90;;;17.23;95.51;101426.63;4121378;28;20483;-74
2021/08/16 05:02:42;;;;;;;3.90;2.30;;;17.40;99.90;;;17.04;96.24;101428.78;4119896;28;20054;-74
2021/08/16 05:04:43;;;;;;;3.10;2.08;;;17.30;99.90;;;16.97;95.87;101430.53;4152361;28;20112;-74
2021/08/16 05:06:44;;;;;;;3.47;1.90;;;17.20;99.90;;;17.03;96.49;101437.78;4121295;28;20027;-74
2021/08/16 05:08:45;;;;;;;6.47;2.00;;;17.20;99.90;;;17.05;95.32;101430.44;4104014;28;20027;-74
2021/08/16 05:10:46;;;;;;;5.22;2.83;;;17.10;99.90;;;17.01;95.60;101434.50;4120014;28;20026;-74
2021/08/16 05:12:52;;;;;;;4.90;2.15;;;17.10;99.90;;;16.94;96.27;101435.38;4119941;28;20427;-74
2021/08/16 05:14:54;;;;;;;6.47;1.90;;;17.10;99.90;;;16.97;96.21;101443.00;4152340;28;20087;-74
2021/08/16 05:16:55;;;;;;;4.88;1.77;;;17.00;99.90;;;16.95;96.21;101447.72;4120015;28;20500;-74
2021/08/16 05:18:56;;;;;;;2.38;1.80;;;17.10;99.90;;;16.90;96.15;101448.25;4120745;28;20106;-74
2021/08/16 05:20:57;;;;;;;5.40;1.70;;;17.00;99.90;;;16.97;95.63;101457.16;4130903;28;20114;-74
2021/08/16 05:22:58;;;;;;;4.82;1.92;;;17.00;99.90;;;17.05;95.21;101459.75;4103912;28;20090;-74
2021/08/16 05:24:59;;;;;;;3.58;1.70;;;17.00;99.90;;;16.95;95.35;101467.19;4119194;28;20031;-74
2021/08/16 05:27:01;;;;;;;4.03;1.60;;;17.10;99.90;;;16.90;95.73;101455.41;4117463;28;20070;-74
2021/08/16 05:29:02;;;;;;;3.47;1.70;;;17.10;99.90;;;16.88;95.99;101468.06;4122394;28;20073;-75
2021/08/16 05:31:03;;;;;;;2.67;2.15;;;17.00;99.90;;;17.06;94.89;101476.59;4120057;28;20502;-74
2021/08/16 05:33:04;;;;;;;2.83;1.63;;;17.10;99.90;;;16.91;95.68;101475.72;4119335;28;20029;-74
2021/08/16 05:35:07;;;;;;;4.97;1.85;;;17.00;99.90;;;16.87;95.48;101482.44;4119429;28;20019;-74
2021/08/16 05:37:08;;;;;;;4.13;1.90;;;17.00;99.90;;;16.94;95.34;101476.19;4135659;28;20517;-74
2021/08/16 05:39:09;;;;;;;6.30;2.00;;;17.10;99.90;;;16.98;95.05;101487.31;4119495;28;20073;-74
2021/08/16 05:41:10;;;;;;;5.25;2.10;;;17.00;99.90;;;16.86;96.27;101489.59;4120916;28;20038;-74
2021/08/16 05:43:11;;;;;;;5.53;1.90;;;17.00;99.90;;;16.88;95.30;101489.41;4115996;28;20541;-73
2021/08/16 05:45:12;;;;;;;3.97;2.40;;;17.00;99.90;;;16.91;96.15;101487.22;4141942;28;20042;-75
2021/08/16 05:47:13;;;;;;;4.78;2.80;;;17.00;99.90;;;17.02;94.78;101501.97;4107184;28;20082;-73
2021/08/16 05:49:14;;;;;;;5.05;2.20;;;17.10;99.90;;;16.91;95.37;101502.38;4110042;28;20089;-73
2021/08/16 05:51:15;;;;;;;3.47;1.95;;;17.10;99.90;;;16.86;96.09;101502.06;4135149;28;20027;-74
2021/08/16 05:53:16;;;;;;;4.82;1.90;;;17.10;99.90;;;16.86;96.55;101504.75;4120074;28;20109;-73
2021/08/16 05:55:17;;;;;;;3.63;1.63;;;17.10;99.90;;;17.00;94.92;101512.78;4120112;28;20031;-73
2021/08/16 05:57:18;;;;;;;3.88;1.85;;;17.10;99.90;;;17.00;95.23;101504.78;4118482;28;20113;-73
2021/08/16 05:59:19;;;;;;;3.92;1.80;;;17.10;99.90;;;17.06;94.96;101519.25;4119903;28;20030;-73
2021/08/16 06:01:19;;;;;;;4.10;2.35;;;17.10;99.90;;;17.03;94.65;101516.94;4118843;28;20022;-74
2021/08/16 06:03:23;;;;;;;3.72;2.10;;;17.20;99.90;;;17.05;94.19;101517.59;4118065;28;20027;-74
2021/08/16 06:05:24;;;;;;;4.53;1.98;;;17.20;99.90;;;17.03;94.47;101509.75;4118819;28;20574;-74
2021/08/16 06:07:25;;;;;;;4.45;1.90;;;17.20;99.90;;;17.05;94.60;101525.59;4119769;28;20087;-74
2021/08/16 06:09:26;;;;;;;5.15;2.17;;;17.20;99.90;;;17.01;94.93;101533.13;4102422;29;20094;-74
2021/08/16 06:11:27;;;;;;;4.00;2.20;;;17.20;99.90;;;16.85;95.60;101517.22;4118134;28;20082;-77
2021/08/16 06:13:28;;;;;;;4.78;2.90;;;17.20;99.90;;;16.90;95.70;101524.72;4118661;28;20502;-73
2021/08/16 06:15:29;;;;;;;3.78;2.20;;;17.20;99.90;;;16.84;95.93;101536.91;4118517;28;20154;-73
2021/08/16 06:17:30;;;;;;;2.75;1.92;;;17.20;99.90;;;16.85;96.90;101540.38;4117953;28;20117;-73
2021/08/16 06:19:34;;;;;;;4.13;2.20;;;17.10;99.90;;;16.92;96.24;101544.84;4118241;28;20026;-73
2021/08/16 06:21:44;;;;;;;3.97;2.58;;;17.10;99.90;;;16.92;95.95;101552.00;4118521;28;20078;-73
2021/08/16 06:23:46;;;;;;;5.70;2.45;;;17.20;99.90;;;16.83;96.21;101548.56;4118570;28;20030;-73
2021/08/16 06:25:47;;;;;;;6.25;2.67;;;17.20;99.90;;;16.95;95.79;101548.97;4118205;28;20041;-73
2021/08/16 06:27:48;;;;;;;7.90;1.92;;;17.20;99.90;;;16.88;95.94;101550.69;4118371;28;20553;-73
2021/08/16 06:29:48;;;;;;;4.75;2.25;;;17.20;99.90;;;16.95;95.73;101554.31;4119001;28;20030;-73
2021/08/16 06:31:49;;;;;;;2.60;1.95;;;17.30;99.90;;;17.01;96.64;101551.78;4118306;28;20026;-73
2021/08/16 06:33:50;;;;;;;9.82;2.38;;;17.20;99.90;;;16.90;95.86;101554.88;4119109;28;20035;-73
2021/08/16 06:35:53;;;;;;;4.70;2.28;;;17.30;99.90;;;16.94;96.05;101557.97;4117817;28;20538;-74
2021/08/16 06:37:54;;;;;;;5.15;2.28;;;17.30;99.90;;;16.93;95.55;101554.50;4118186;28;20027;-74
2021/08/16 06:39:55;;;;;;;4.53;2.17;;;17.30;99.90;;;17.03;95.53;101557.75;4118173;28;20582;-73
2021/08/16 06:41:57;;;;;;;4.53;2.47;;;17.30;99.90;;;17.00;95.48;101551.94;4119364;28;20070;-74
2021/08/16 06:43:58;;;;;;;5.45;2.20;;;17.30;99.90;;;16.92;95.39;101539.50;4101974;28;20035;-73
2021/08/16 06:45:59;;;;;;;3.80;2.08;;;17.40;99.90;;;17.00;95.13;101546.59;4119300;28;20409;-74
2021/08/16 06:48:00;;;;;;;5.65;2.63;;;17.30;99.90;;;17.01;95.45;101548.28;4117673;28;20054;-74
2021/08/16 06:50:01;;;;;;;4.13;2.20;;;17.40;99.90;;;17.08;94.68;101565.22;4133959;28;20049;-73
2021/08/16 06:52:02;;;;;;;3.17;2.03;;;17.40;99.90;;;17.12;94.33;101574.50;4118195;28;20027;-77
2021/08/16 06:54:03;;;;;;;3.53;2.03;;;17.40;99.90;;;16.97;94.85;101569.13;4117258;28;20035;-77
2021/08/16 06:56:04;;;;;;;5.38;2.22;;;17.40;99.90;;;17.01;95.17;101569.59;4134436;28;20026;-77
2021/08/16 06:58:05;;;;;;;4.90;2.40;;;17.40;99.90;;;17.08;94.39;101578.56;4119510;28;20547;-77
2021/08/16 07:00:07;;;;;;;4.18;2.10;;;17.40;99.90;;;17.20;94.13;101585.13;4119254;28;20027;-77
2021/08/16 07:02:09;;;;;;;4.80;2.40;;;17.50;99.90;;;17.25;92.64;101577.41;4119249;28;20035;-77
2021/08/16 07:04:09;;;;;;;5.68;2.35;;;17.50;99.90;;;17.32;93.00;101578.38;4150704;28;20056;-77
2021/08/16 07:06:10;;;;;;;4.68;2.05;;;17.60;99.90;;;17.31;92.50;101590.03;4119910;28;20031;-77
2021/08/16 07:08:13;;;;;;;4.80;2.58;;;17.60;99.90;;;17.34;92.78;101587.00;4119543;28;20031;-77
2021/08/16 07:10:14;;;;;;;3.95;2.70;;;17.70;99.90;;;17.28;92.15;101582.38;4119610;28;20038;-77
2021/08/16 07:12:15;;;;;;;7.07;1.83;;;17.70;99.90;;;17.33;91.71;101589.84;4118551;28;20035;-77
2021/08/16 07:14:16;;;;;;;4.07;2.33;;;17.70;99.90;;;17.38;91.07;101592.81;4119450;28;20034;-77
2021/08/16 07:16:17;;;;;;;5.55;2.17;;;17.80;99.90;;;17.36;90.92;101594.81;4118178;28;20135;-77
2021/08/16 07:18:18;;;;;;;5.80;2.08;;;17.80;99.90;;;17.23;90.96;101590.09;4118131;28;20112;-77
2021/08/16 07:20:19;;;;;;;3.20;1.77;;;17.80;99.90;;;17.32;90.17;101602.38;4118326;28;20101;-77
2021/08/16 07:22:20;;;;;;;4.68;2.60;;;17.80;99.90;;;17.39;90.23;101605.97;4134275;28;20022;-77
2021/08/16 07:24:21;;;;;;;4.35;2.13;;;17.80;99.90;;;17.27;89.34;101587.88;4118094;28;20410;-77
2021/08/16 07:26:22;;;;;;;4.95;1.80;;;17.80;99.90;;;17.26;89.79;101613.75;4119261;28;20027;-77
2021/08/16 07:28:23;;;;;;;3.78;2.10;;;17.80;99.90;;;17.38;89.71;101612.28;4118264;28;20042;-77
2021/08/16 07:30:24;;;;;;;4.85;2.05;;;17.90;99.90;;;17.54;88.58;101622.88;4119373;28;20549;-77
2021/08/16 07:32:25;;;;;;;7.97;2.05;;;17.90;99.90;;;17.59;87.76;101617.81;4133704;28;20030;-77
2021/08/16 07:34:26;;;;;;;4.35;2.10;;;18.00;99.90;;;17.65;87.35;101617.09;4134224;28;20054;-77
2021/08/16 07:36:27;;;;;;;5.05;2.38;;;18.00;99.90;;;17.71;87.22;101618.25;4117952;28;20032;-77
2021/08/16 07:38:28;;;;;;;3.58;2.08;;;18.10;99.90;;;17.71;87.07;101628.91;4096067;29;20027;-77
2021/08/16 07:40:29;;;;;;;5.55;2.08;;;18.10;99.90;;;17.75;86.31;101638.19;4118076;28;20034;-77
2021/08/16 07:42:30;;;;;;;4.68;2.00;;;18.20;99.90;;;17.80;83.82;101624.31;4102781;28;20035;-77
2021/08/16 07:44:31;;;;;;;3.88;1.88;;;18.30;99.90;;;17.71;84.59;101636.09;4122371;28;20038;-77
2021/08/16 07:46:32;;;;;;;6.93;2.17;;;18.30;99.90;;;17.84;83.96;101637.09;4121185;28;20030;-77
2021/08/16 07:48:32;;;;;;;4.40;2.35;;;18.30;99.90;;;17.99;84.97;101642.47;4120818;28;20034;-77
2021/08/16 07:50:33;;;;;;;6.30;2.20;;;18.40;99.90;;;17.96;83.61;101638.31;4121275;28;20037;-77
2021/08/16 07:52:42;;;;;;;5.03;2.45;;;18.40;99.90;;;17.87;83.11;101647.41;4122212;28;20592;-77
2021/08/16 07:54:44;;;;;;;7.18;2.17;;;18.40;99.90;;;17.85;81.59;101648.63;4120817;28;20402;-77
2021/08/16 07:56:49;;;;;;;6.50;2.15;;;18.50;99.90;;;17.84;81.18;101654.97;4120831;28;20158;-77
2021/08/16 07:58:50;;;;;;;5.32;2.20;;;18.50;99.90;;;17.97;82.25;101660.50;4121178;28;20054;-77
2021/08/16 08:00:51;;;;;;;6.35;2.55;;;18.50;99.90;;;18.04;81.71;101664.13;4104736;29;20443;-77
2021/08/16 08:02:52;;;;;;;6.68;2.55;;;18.60;99.90;;;18.05;80.70;101652.41;4120527;28;20057;-77
2021/08/16 08:04:53;;;;;;;6.20;2.28;;;18.70;99.90;;;18.06;80.32;101662.94;4121989;28;20026;-77
2021/08/16 08:06:54;;;;;;;3.42;1.75;;;18.70;99.90;;;17.91;79.00;101654.06;4120745;28;20089;-77
2021/08/16 08:08:55;;;;;;;4.53;1.92;;;18.70;99.90;;;18.10;80.44;101653.53;4104830;28;20094;-77
2021/08/16 08:10:56;;;;;;;4.45;1.90;;;18.70;99.90;;;18.17;79.16;101662.47;4153178;28;20413;-77
2021/08/16 08:12:57;;;;;;;5.22;2.15;;;18.80;99.90;;;18.06;77.12;101664.75;4120542;28;20034;-77
2021/08/16 08:14:58;;;;;;;3.05;1.88;;;18.80;99.90;;;18.03;76.04;101671.31;4120891;28;20054;-77
2021/08/16 08:16:59;;;;;;;5.95;1.73;;;18.80;99.90;;;18.14;74.67;101672.69;4121682;28;20034;-77
2021/08/16 08:19:00;;;;;;;5.43;2.17;;;18.90;99.90;;;18.29;74.64;101673.53;4136795;28;20023;-77
2021/08/16 08:21:01;;;;;;;3.65;2.00;;;18.90;99.90;;;18.31;75.59;101671.50;4136728;28;20429;-77
2021/08/16 08:23:03;;;;;;;4.57;2.47;;;19.00;99.90;;;18.15;75.26;101663.66;4120746;28;20055;-77